Time;durP1;ratioP1;P1;durP2;ratioP2;P2;SDS_P1;SDS_P2;PMS_P1;PMS_P2;Temp;Humidity;BMP_temperature;BMP_pressure;BME280_temperature;BME280_humidity;BME280_pressure;Samples;Min_cycle;Max_cycle;Signal;HPM_P1;HPM_P2
2023/12/17 00:01:05;;;;;;;15.02;6.10;;;;;;;;;;5128217;27;20494;-71
2023/12/17 00:03:31;;;;;;;15.70;6.22;;;;;;;;;;5120360;27;20125;-71
2023/12/17 00:05:57;;;;;;;20.00;6.13;;;;;;;;;;5150885;27;20039;-71
2023/12/17 00:08:23;;;;;;;19.33;6.45;;;;;;;;;;5120992;27;20043;-71
2023/12/17 00:10:49;;;;;;;18.65;6.47;;;;;;;;;;5124512;27;20398;-71
2023/12/17 00:13:16;;;;;;;19.10;8.07;;;;;;;;;;5119148;27;20482;-70
2023/12/17 00:15:42;;;;;;;20.45;7.22;;;;;;;;;;5126919;27;20572;-71
2023/12/17 00:18:08;;;;;;;14.93;5.90;;;;;;;;;;5148237;27;20176;-71
2023/12/17 00:20:34;;;;;;;19.30;6.18;;;;;;;;;;5119732;27;20402;-71
2023/12/17 00:23:01;;;;;;;17.58;5.68;;;;;;;;;;5117210;27;20047;-71
2023/12/17 00:25:26;;;;;;;16.13;6.40;;;;;;;;;;5142602;27;20049;-71
2023/12/17 00:27:52;;;;;;;15.85;6.25;;;;;;;;;;5133180;27;20050;-71
2023/12/17 00:30:18;;;;;;;14.00;5.35;;;;;;;;;;5130893;27;20432;-71
2023/12/17 00:32:44;;;;;;;21.75;6.97;;;;;;;;;;5121644;27;20042;-71
2023/12/17 00:35:10;;;;;;;20.83;6.03;;;;;;;;;;5146751;27;20043;-71
2023/12/17 00:37:36;;;;;;;14.02;4.97;;;;;;;;;;5125712;27;20103;-71
2023/12/17 00:40:02;;;;;;;20.15;6.68;;;;;;;;;;5146020;27;20052;-71
2023/12/17 00:42:28;;;;;;;20.23;5.70;;;;;;;;;;5145387;27;20521;-71
2023/12/17 00:44:54;;;;;;;16.40;6.10;;;;;;;;;;5130707;27;20039;-71
2023/12/17 00:47:20;;;;;;;13.80;4.90;;;;;;;;;;5129477;27;20121;-71
2023/12/17 00:49:46;;;;;;;21.88;6.60;;;;;;;;;;5142252;27;20058;-71
2023/12/17 00:52:12;;;;;;;16.27;5.32;;;;;;;;;;5141330;27;20103;-71
2023/12/17 00:54:38;;;;;;;16.13;5.90;;;;;;;;;;5145103;27;20130;-71
2023/12/17 00:57:04;;;;;;;15.68;5.45;;;;;;;;;;5143095;27;20428;-71
2023/12/17 00:59:30;;;;;;;16.23;5.60;;;;;;;;;;5131844;27;20039;-71
2023/12/17 01:01:56;;;;;;;22.98;6.38;;;;;;;;;;5145027;27;20035;-70
2023/12/17 01:04:22;;;;;;;17.40;5.85;;;;;;;;;;5131571;27;20461;-71
2023/12/17 01:06:49;;;;;;;19.35;6.20;;;;;;;;;;5125576;27;20147;-71
2023/12/17 01:09:15;;;;;;;17.85;6.72;;;;;;;;;;5130812;27;20058;-71
2023/12/17 01:11:42;;;;;;;21.65;5.78;;;;;;;;;;5125923;27;20035;-71
2023/12/17 01:14:08;;;;;;;12.48;5.95;;;;;;;;;;5128404;27;20136;-71
2023/12/17 01:16:34;;;;;;;18.05;5.90;;;;;;;;;;5122869;27;20047;-71
2023/12/17 01:19:00;;;;;;;20.95;6.18;;;;;;;;;;5131995;27;20042;-71
2023/12/17 01:21:26;;;;;;;11.35;4.97;;;;;;;;;;5123733;27;20035;-71
2023/12/17 01:23:52;;;;;;;15.95;4.88;;;;;;;;;;5113921;27;20112;-71
2023/12/17 01:26:20;;;;;;;16.83;5.15;;;;;;;;;;5134026;27;20114;-71
2023/12/17 01:28:46;;;;;;;19.55;6.72;;;;;;;;;;5153304;27;20047;-71
2023/12/17 01:31:12;;;;;;;16.90;6.18;;;;;;;;;;5142738;27;20050;-71
2023/12/17 01:33:38;;;;;;;21.83;6.03;;;;;;;;;;5122910;27;20059;-71
2023/12/17 01:36:04;;;;;;;12.73;5.55;;;;;;;;;;5147609;27;20039;-71
2023/12/17 01:38:30;;;;;;;14.98;5.45;;;;;;;;;;5133221;27;20054;-71
2023/12/17 01:40:56;;;;;;;18.73;5.78;;;;;;;;;;5126179;27;20050;-70
2023/12/17 01:43:22;;;;;;;13.95;5.30;;;;;;;;;;5151175;27;20054;-71
2023/12/17 01:45:48;;;;;;;17.52;5.63;;;;;;;;;;5134900;27;20042;-71
2023/12/17 01:48:14;;;;;;;18.00;5.55;;;;;;;;;;5132375;27;20608;-71
2023/12/17 01:50:40;;;;;;;18.90;7.07;;;;;;;;;;5125049;27;20092;-71
2023/12/17 01:53:07;;;;;;;14.68;6.30;;;;;;;;;;5116971;27;20043;-71
2023/12/17 01:55:33;;;;;;;16.65;6.40;;;;;;;;;;5121961;27;20432;-71
2023/12/17 01:57:59;;;;;;;11.48;5.35;;;;;;;;;;5126516;27;20679;-71
2023/12/17 02:00:25;;;;;;;16.10;6.25;;;;;;;;;;5120906;27;20050;-71
2023/12/17 02:02:51;;;;;;;15.27;5.18;;;;;;;;;;5125142;27;20451;-71
2023/12/17 02:05:17;;;;;;;18.23;6.00;;;;;;;;;;5134657;27;20031;-71
2023/12/17 02:07:43;;;;;;;18.20;6.07;;;;;;;;;;5148022;27;20034;-71
2023/12/17 02:10:09;;;;;;;17.20;5.90;;;;;;;;;;5132469;27;20035;-71
2023/12/17 02:12:35;;;;;;;12.43;5.57;;;;;;;;;;5117835;27;20047;-71
2023/12/17 02:15:01;;;;;;;14.23;5.72;;;;;;;;;;5118895;27;20065;-71
2023/12/17 02:17:31;;;;;;;17.55;6.20;;;;;;;;;;5126395;27;20071;-71
2023/12/17 02:19:58;;;;;;;17.80;5.97;;;;;;;;;;5126157;27;20049;-71
2023/12/17 02:22:24;;;;;;;16.65;5.85;;;;;;;;;;5125517;27;20095;-71
2023/12/17 02:24:54;;;;;;;17.15;6.10;;;;;;;;;;5135374;27;20138;-71
2023/12/17 02:27:23;;;;;;;15.80;6.18;;;;;;;;;;5130737;27;20058;-70
2023/12/17 02:29:50;;;;;;;15.43;5.97;;;;;;;;;;5131349;27;20130;-71
2023/12/17 02:32:20;;;;;;;16.20;5.88;;;;;;;;;;5150424;27;20478;-70
2023/12/17 02:34:46;;;;;;;14.70;5.35;;;;;;;;;;5124388;27;20046;-71
2023/12/17 02:37:12;;;;;;;16.58;5.60;;;;;;;;;;5130712;27;20042;-71
2023/12/17 02:39:39;;;;;;;11.70;5.55;;;;;;;;;;5130769;27;20050;-71
2023/12/17 02:42:05;;;;;;;18.25;5.72;;;;;;;;;;5135098;27;20054;-71
2023/12/17 02:44:31;;;;;;;12.25;5.22;;;;;;;;;;5129435;27;20084;-71
2023/12/17 02:46:58;;;;;;;12.15;5.40;;;;;;;;;;5127487;27;20067;-71
2023/12/17 02:49:24;;;;;;;16.00;5.50;;;;;;;;;;5126054;27;20039;-71
2023/12/17 02:51:50;;;;;;;15.68;5.93;;;;;;;;;;5124392;27;21803;-71
2023/12/17 02:54:20;;;;;;;14.52;5.53;;;;;;;;;;5118124;27;20138;-71
2023/12/17 02:56:46;;;;;;;15.07;5.97;;;;;;;;;;5122392;27;20147;-71
2023/12/17 02:59:13;;;;;;;19.33;6.15;;;;;;;;;;5123730;27;20541;-71
2023/12/17 03:01:43;;;;;;;10.52;6.07;;;;;;;;;;5121381;27;20486;-71
2023/12/17 03:04:10;;;;;;;12.45;5.45;;;;;;;;;;5124954;27;20114;-71
2023/12/17 03:06:37;;;;;;;13.73;6.32;;;;;;;;;;5124369;27;20046;-71
2023/12/17 03:09:03;;;;;;;17.13;5.63;;;;;;;;;;5122550;27;21385;-71
2023/12/17 03:11:29;;;;;;;14.85;6.15;;;;;;;;;;5141487;27;20473;-71
2023/12/17 03:13:55;;;;;;;16.33;6.00;;;;;;;;;;5126637;27;20470;-71
2023/12/17 03:16:21;;;;;;;16.60;5.75;;;;;;;;;;5125717;27;20034;-71
2023/12/17 03:18:47;;;;;;;14.93;5.80;;;;;;;;;;5125787;27;20065;-71
2023/12/17 03:21:13;;;;;;;13.05;5.63;;;;;;;;;;5131457;27;20481;-71
2023/12/17 03:23:39;;;;;;;11.45;5.70;;;;;;;;;;5121708;27;20081;-71
2023/12/17 03:26:05;;;;;;;15.38;5.68;;;;;;;;;;5129841;27;20049;-71
2023/12/17 03:28:31;;;;;;;15.40;6.65;;;;;;;;;;5121762;27;20054;-71
2023/12/17 03:30:57;;;;;;;10.95;5.20;;;;;;;;;;5132230;27;20058;-71
2023/12/17 03:33:23;;;;;;;18.27;6.00;;;;;;;;;;5126643;27;20182;-71
2023/12/17 03:35:49;;;;;;;14.02;6.38;;;;;;;;;;5131321;27;20063;-71
2023/12/17 03:38:15;;;;;;;12.95;4.55;;;;;;;;;;5129906;27;20039;-70
2023/12/17 03:40:41;;;;;;;12.60;6.22;;;;;;;;;;5123904;27;20619;-71
2023/12/17 03:43:08;;;;;;;15.05;5.68;;;;;;;;;;5131619;27;20102;-71
2023/12/17 03:45:35;;;;;;;12.85;5.90;;;;;;;;;;5148627;27;20087;-71
2023/12/17 03:48:02;;;;;;;12.95;5.25;;;;;;;;;;5152071;27;20043;-71
2023/12/17 03:50:28;;;;;;;19.45;7.10;;;;;;;;;;5132506;27;20047;-71
2023/12/17 03:52:54;;;;;;;12.45;5.93;;;;;;;;;;5132659;27;20050;-71
2023/12/17 03:55:20;;;;;;;14.70;6.45;;;;;;;;;;5124238;27;20050;-71
2023/12/17 03:57:47;;;;;;;11.15;6.18;;;;;;;;;;5142069;27;20062;-71
2023/12/17 04:00:13;;;;;;;14.88;6.28;;;;;;;;;;5125523;27;20042;-71
2023/12/17 04:02:39;;;;;;;16.52;6.43;;;;;;;;;;5121138;27;20057;-71
2023/12/17 04:05:06;;;;;;;18.33;6.35;;;;;;;;;;5128258;27;20050;-71
2023/12/17 04:07:32;;;;;;;20.98;7.22;;;;;;;;;;5128328;27;20747;-71
2023/12/17 04:09:58;;;;;;;16.92;8.23;;;;;;;;;;5130479;27;20039;-71
2023/12/17 04:12:24;;;;;;;12.82;6.28;;;;;;;;;;5132649;27;20042;-71
2023/12/17 04:14:51;;;;;;;13.30;6.25;;;;;;;;;;5134235;27;20080;-71
2023/12/17 04:17:17;;;;;;;14.50;6.57;;;;;;;;;;5122212;27;20071;-71
2023/12/17 04:19:43;;;;;;;14.60;6.22;;;;;;;;;;5131168;27;20127;-71
2023/12/17 04:22:09;;;;;;;16.80;6.55;;;;;;;;;;5131214;27;20054;-71
2023/12/17 04:24:35;;;;;;;11.93;6.28;;;;;;;;;;5121918;27;20172;-71
2023/12/17 04:27:01;;;;;;;12.88;5.75;;;;;;;;;;5129453;27;20125;-71
2023/12/17 04:29:27;;;;;;;14.50;6.60;;;;;;;;;;5154406;27;20082;-71
2023/12/17 04:31:53;;;;;;;11.55;5.80;;;;;;;;;;5130597;27;20054;-71
2023/12/17 04:34:19;;;;;;;19.38;6.32;;;;;;;;;;5133349;27;20049;-70
2023/12/17 04:36:45;;;;;;;14.00;5.97;;;;;;;;;;5125815;27;20390;-71
2023/12/17 04:39:12;;;;;;;12.77;5.75;;;;;;;;;;5132490;27;20043;-70
2023/12/17 04:41:38;;;;;;;15.45;6.28;;;;;;;;;;5134604;27;20054;-71
2023/12/17 04:44:05;;;;;;;16.08;6.63;;;;;;;;;;5130684;27;20099;-70
2023/12/17 04:46:31;;;;;;;14.55;6.18;;;;;;;;;;5130772;27;20034;-71
2023/12/17 04:48:57;;;;;;;10.70;5.97;;;;;;;;;;5122864;27;20042;-71
2023/12/17 04:51:23;;;;;;;13.10;6.10;;;;;;;;;;5136764;27;20073;-71
2023/12/17 04:53:50;;;;;;;16.88;6.80;;;;;;;;;;5119983;27;20094;-70
2023/12/17 04:56:16;;;;;;;13.57;6.40;;;;;;;;;;5126163;27;20488;-71
2023/12/17 04:58:42;;;;;;;13.10;5.63;;;;;;;;;;5127231;27;20118;-71
2023/12/17 05:01:08;;;;;;;17.67;6.55;;;;;;;;;;5125137;27;20039;-71
2023/12/17 05:03:36;;;;;;;15.98;6.07;;;;;;;;;;5125855;27;20098;-71
2023/12/17 05:06:02;;;;;;;19.27;7.13;;;;;;;;;;5126979;27;20043;-71
2023/12/17 05:08:28;;;;;;;16.05;6.40;;;;;;;;;;5128043;27;20058;-71
2023/12/17 05:10:54;;;;;;;14.00;6.65;;;;;;;;;;5124990;27;20133;-71
2023/12/17 05:13:20;;;;;;;14.23;7.30;;;;;;;;;;5131089;27;20038;-71
2023/12/17 05:15:46;;;;;;;16.65;7.10;;;;;;;;;;5130518;27;20031;-71
2023/12/17 05:18:13;;;;;;;18.63;6.88;;;;;;;;;;5122318;27;20054;-71
2023/12/17 05:20:39;;;;;;;22.55;8.32;;;;;;;;;;5130083;27;20049;-70
2023/12/17 05:23:05;;;;;;;13.27;6.38;;;;;;;;;;5133397;27;20043;-71
2023/12/17 05:25:31;;;;;;;19.55;6.82;;;;;;;;;;5131240;27;20038;-71
2023/12/17 05:27:57;;;;;;;16.08;7.20;;;;;;;;;;5133066;27;20504;-70
2023/12/17 05:30:23;;;;;;;18.73;8.32;;;;;;;;;;5121267;27;20031;-71
2023/12/17 05:32:50;;;;;;;19.23;8.40;;;;;;;;;;5128836;27;20478;-71
2023/12/17 05:35:16;;;;;;;19.88;8.05;;;;;;;;;;5134584;27;20035;-71
2023/12/17 05:37:42;;;;;;;21.50;7.75;;;;;;;;;;5133330;27;20095;-71
2023/12/17 05:40:08;;;;;;;17.35;8.02;;;;;;;;;;5123500;27;20047;-70
2023/12/17 05:42:34;;;;;;;19.98;7.80;;;;;;;;;;5128805;27;20125;-71
2023/12/17 05:45:00;;;;;;;17.38;8.38;;;;;;;;;;5131335;27;20122;-71
2023/12/17 05:47:26;;;;;;;22.85;8.77;;;;;;;;;;5129902;27;20046;-71
2023/12/17 05:49:52;;;;;;;15.98;8.00;;;;;;;;;;5116910;27;20111;-71
2023/12/17 05:52:22;;;;;;;15.68;7.97;;;;;;;;;;5148245;27;20031;-71
2023/12/17 05:54:48;;;;;;;18.02;7.90;;;;;;;;;;5132815;27;20042;-71
2023/12/17 05:57:14;;;;;;;19.98;9.27;;;;;;;;;;5130570;27;20141;-71
2023/12/17 05:59:40;;;;;;;22.63;9.27;;;;;;;;;;5126719;27;20065;-71
2023/12/17 06:02:06;;;;;;;23.35;9.68;;;;;;;;;;5127465;27;20157;-71
2023/12/17 06:04:33;;;;;;;24.23;10.05;;;;;;;;;;5126379;27;20039;-71
2023/12/17 06:06:59;;;;;;;18.23;8.05;;;;;;;;;;5150825;27;20049;-71
2023/12/17 06:09:25;;;;;;;14.65;7.93;;;;;;;;;;5124099;27;20062;-71
2023/12/17 06:11:51;;;;;;;18.80;9.05;;;;;;;;;;5123454;27;20039;-71
2023/12/17 06:14:17;;;;;;;20.48;10.18;;;;;;;;;;5128713;27;20039;-71
2023/12/17 06:16:44;;;;;;;16.73;9.18;;;;;;;;;;5122152;27;20490;-71
2023/12/17 06:19:13;;;;;;;16.67;7.93;;;;;;;;;;5122260;27;20402;-71
2023/12/17 06:21:39;;;;;;;18.40;7.85;;;;;;;;;;5125592;27;20047;-71
2023/12/17 06:24:05;;;;;;;16.60;8.07;;;;;;;;;;5127260;27;20038;-71
2023/12/17 06:26:32;;;;;;;23.10;9.02;;;;;;;;;;5118531;27;20143;-71
2023/12/17 06:28:58;;;;;;;22.27;7.57;;;;;;;;;;5126961;27;20042;-71
2023/12/17 06:31:24;;;;;;;21.10;7.40;;;;;;;;;;5146665;27;20038;-71
2023/12/17 06:33:54;;;;;;;21.48;8.20;;;;;;;;;;5130950;27;20050;-71
2023/12/17 06:36:20;;;;;;;25.90;8.13;;;;;;;;;;5133702;27;20054;-71
2023/12/17 06:38:47;;;;;;;19.48;7.40;;;;;;;;;;5132076;27;20042;-71
2023/12/17 06:41:13;;;;;;;19.80;7.40;;;;;;;;;;5124454;27;20049;-71
2023/12/17 06:43:43;;;;;;;19.23;6.40;;;;;;;;;;5132513;27;20074;-70
2023/12/17 06:46:09;;;;;;;24.45;8.65;;;;;;;;;;5128496;27;20180;-71
2023/12/17 06:48:35;;;;;;;19.55;7.20;;;;;;;;;;5132640;27;20121;-71
2023/12/17 06:51:02;;;;;;;13.98;4.95;;;;;;;;;;5118670;27;20054;-71
2023/12/17 06:53:28;;;;;;;24.67;7.72;;;;;;;;;;5134928;27;20042;-71
2023/12/17 06:55:54;;;;;;;16.80;7.05;;;;;;;;;;5130574;27;20054;-71
2023/12/17 06:58:21;;;;;;;18.05;7.18;;;;;;;;;;5132622;27;20455;-71
2023/12/17 07:00:47;;;;;;;22.95;8.60;;;;;;;;;;5124967;27;20039;-71
2023/12/17 07:03:13;;;;;;;26.67;8.98;;;;;;;;;;5121900;27;20467;-71
2023/12/17 07:05:39;;;;;;;28.02;9.35;;;;;;;;;;5126956;27;20457;-71
2023/12/17 07:08:05;;;;;;;25.55;8.15;;;;;;;;;;5123435;28;20055;-71
2023/12/17 07:10:31;;;;;;;22.83;7.97;;;;;;;;;;5115128;28;20047;-71
2023/12/17 07:12:57;;;;;;;17.83;7.45;;;;;;;;;;5125809;27;20030;-71
2023/12/17 07:15:23;;;;;;;26.30;8.15;;;;;;;;;;5121256;27;20442;-71
2023/12/17 07:17:51;;;;;;;17.70;6.18;;;;;;;;;;5122450;27;20153;-71
2023/12/17 07:20:17;;;;;;;20.63;6.95;;;;;;;;;;5123529;27;20517;-71
2023/12/17 07:22:43;;;;;;;15.07;6.88;;;;;;;;;;5125223;27;20138;-71
2023/12/17 07:25:09;;;;;;;20.02;6.50;;;;;;;;;;5120355;27;20073;-71
2023/12/17 07:27:35;;;;;;;21.77;7.60;;;;;;;;;;5122825;27;20081;-71
2023/12/17 07:30:01;;;;;;;17.25;5.93;;;;;;;;;;5126282;27;20095;-71
2023/12/17 07:32:27;;;;;;;23.20;8.32;;;;;;;;;;5140929;27;20046;-71
2023/12/17 07:34:53;;;;;;;20.73;8.20;;;;;;;;;;5127419;27;20091;-71
2023/12/17 07:37:20;;;;;;;20.13;7.57;;;;;;;;;;5129984;27;20034;-71
2023/12/17 07:39:46;;;;;;;22.50;9.85;;;;;;;;;;5127671;27;20049;-71
2023/12/17 07:42:12;;;;;;;19.08;8.02;;;;;;;;;;5127454;27;20452;-71
2023/12/17 07:44:38;;;;;;;18.75;8.00;;;;;;;;;;5133839;27;20081;-71
2023/12/17 07:47:04;;;;;;;19.17;7.88;;;;;;;;;;5129191;27;20079;-70
2023/12/17 07:49:30;;;;;;;26.80;9.45;;;;;;;;;;5131288;27;20035;-71
2023/12/17 07:51:56;;;;;;;22.67;9.07;;;;;;;;;;5126420;27;20405;-71
2023/12/17 07:54:22;;;;;;;25.17;9.77;;;;;;;;;;5128214;27;20031;-71
2023/12/17 07:56:48;;;;;;;23.85;9.00;;;;;;;;;;5118969;27;20070;-71
2023/12/17 07:59:14;;;;;;;17.23;8.45;;;;;;;;;;5148437;27;20046;-70
2023/12/17 08:01:40;;;;;;;22.50;8.80;;;;;;;;;;5131589;27;20121;-70
2023/12/17 08:04:07;;;;;;;20.00;9.05;;;;;;;;;;5129776;27;20115;-71
2023/12/17 08:06:33;;;;;;;20.23;10.75;;;;;;;;;;5121489;27;20499;-71
2023/12/17 08:08:59;;;;;;;23.08;8.18;;;;;;;;;;5149721;27;20129;-70
2023/12/17 08:11:25;;;;;;;21.60;8.80;;;;;;;;;;5122666;27;20035;-70
2023/12/17 08:13:52;;;;;;;26.08;10.57;;;;;;;;;;5132580;27;20074;-71
2023/12/17 08:16:21;;;;;;;22.63;8.43;;;;;;;;;;5120182;27;20508;-71
2023/12/17 08:18:47;;;;;;;19.10;6.95;;;;;;;;;;5121455;27;20047;-71
2023/12/17 08:21:13;;;;;;;19.00;7.25;;;;;;;;;;5132490;27;20039;-71
2023/12/17 08:23:39;;;;;;;21.83;7.70;;;;;;;;;;5133293;27;20050;-71
2023/12/17 08:26:05;;;;;;;20.33;7.15;;;;;;;;;;5126103;27;20074;-71
2023/12/17 08:28:31;;;;;;;16.10;5.82;;;;;;;;;;5131884;27;20583;-71
2023/12/17 08:30:57;;;;;;;20.88;7.07;;;;;;;;;;5132481;27;20208;-71
2023/12/17 08:33:26;;;;;;;26.38;6.28;;;;;;;;;;5131013;27;20147;-71
2023/12/17 08:35:52;;;;;;;17.05;5.85;;;;;;;;;;5132147;27;20189;-71
2023/12/17 08:38:18;;;;;;;19.90;6.78;;;;;;;;;;5132518;27;20059;-71
2023/12/17 08:40:48;;;;;;;20.30;6.32;;;;;;;;;;5131660;27;20050;-71
2023/12/17 08:43:14;;;;;;;22.05;6.85;;;;;;;;;;5126535;27;20054;-71
2023/12/17 08:45:43;;;;;;;18.98;7.82;;;;;;;;;;5125746;27;20510;-71
2023/12/17 08:48:09;;;;;;;21.27;6.05;;;;;;;;;;5130418;27;20031;-71
2023/12/17 08:50:35;;;;;;;14.55;5.82;;;;;;;;;;5134907;27;20038;-71
2023/12/17 08:53:01;;;;;;;19.75;6.00;;;;;;;;;;5126379;27;20728;-70
2023/12/17 08:55:27;;;;;;;19.33;5.95;;;;;;;;;;5127606;27;20457;-71
2023/12/17 08:57:53;;;;;;;24.13;7.38;;;;;;;;;;5121123;27;20141;-71
2023/12/17 09:00:19;;;;;;;24.55;7.13;;;;;;;;;;5124399;27;20482;-70
2023/12/17 09:02:45;;;;;;;21.30;6.88;;;;;;;;;;5123609;27;20520;-71
2023/12/17 09:05:12;;;;;;;28.00;7.32;;;;;;;;;;5126053;27;20496;-71
2023/12/17 09:07:39;;;;;;;23.38;5.65;;;;;;;;;;5126321;27;20047;-71
2023/12/17 09:10:05;;;;;;;31.60;10.88;;;;;;;;;;5118716;27;20050;-71
2023/12/17 09:12:31;;;;;;;18.45;6.38;;;;;;;;;;5132915;27;20553;-71
2023/12/17 09:15:00;;;;;;;26.42;6.70;;;;;;;;;;5131345;27;20551;-71
2023/12/17 09:17:26;;;;;;;19.00;6.80;;;;;;;;;;5125596;27;20043;-71
2023/12/17 09:19:53;;;;;;;22.13;6.85;;;;;;;;;;5123244;27;20057;-71
2023/12/17 09:22:19;;;;;;;26.95;7.53;;;;;;;;;;5124519;27;20035;-70
2023/12/17 09:24:45;;;;;;;25.38;7.55;;;;;;;;;;5119830;27;20057;-71
2023/12/17 09:27:16;;;;;;;22.30;6.45;;;;;;;;;;5137253;27;20466;-71
2023/12/17 09:29:42;;;;;;;32.42;8.95;;;;;;;;;;5116659;27;20053;-71
2023/12/17 09:32:09;;;;;;;24.58;7.88;;;;;;;;;;5124753;27;20046;-70
2023/12/17 09:34:38;;;;;;;24.70;7.85;;;;;;;;;;5130799;27;20042;-71
2023/12/17 09:37:04;;;;;;;25.48;7.55;;;;;;;;;;5127569;27;20046;-71
2023/12/17 09:39:30;;;;;;;32.42;12.38;;;;;;;;;;5121745;27;20043;-70
2023/12/17 09:41:59;;;;;;;30.80;8.02;;;;;;;;;;5135905;27;20050;-71
2023/12/17 09:44:26;;;;;;;21.38;7.63;;;;;;;;;;5128946;27;20099;-70
2023/12/17 09:46:52;;;;;;;24.63;7.45;;;;;;;;;;5123010;27;20402;-72
2023/12/17 09:49:18;;;;;;;21.73;8.60;;;;;;;;;;5121245;27;20034;-71
2023/12/17 09:51:47;;;;;;;25.30;8.10;;;;;;;;;;5128271;27;20043;-71
2023/12/17 09:54:13;;;;;;;32.20;8.18;;;;;;;;;;5130998;27;20452;-73
2023/12/17 09:56:40;;;;;;;18.20;6.43;;;;;;;;;;5119753;27;20050;-71
2023/12/17 09:59:06;;;;;;;26.05;8.07;;;;;;;;;;5122106;27;20103;-71
2023/12/17 10:01:32;;;;;;;27.90;8.35;;;;;;;;;;5145054;27;20462;-70
2023/12/17 10:03:58;;;;;;;27.48;7.93;;;;;;;;;;5123954;27;20047;-71
2023/12/17 10:06:24;;;;;;;25.15;8.35;;;;;;;;;;5127949;27;20039;-70
2023/12/17 10:08:50;;;;;;;22.98;7.40;;;;;;;;;;5120011;27;20031;-70
2023/12/17 10:11:17;;;;;;;29.33;9.60;;;;;;;;;;5120886;27;20377;-71
2023/12/17 10:13:45;;;;;;;26.52;8.57;;;;;;;;;;5143059;27;20205;-71
2023/12/17 10:16:11;;;;;;;25.90;8.45;;;;;;;;;;5127084;27;20467;-71
2023/12/17 10:18:38;;;;;;;26.13;8.35;;;;;;;;;;5128339;27;20054;-71
2023/12/17 10:21:04;;;;;;;24.88;9.55;;;;;;;;;;5119725;27;20085;-70
2023/12/17 10:23:48;;;;;;;27.70;9.57;;;;;;;;;;5118971;27;20055;-70
2023/12/17 10:26:14;;;;;;;21.88;7.72;;;;;;;;;;5145141;27;20501;-71
2023/12/17 10:28:47;;;;;;;32.00;9.50;;;;;;;;;;5130328;27;20058;-70
2023/12/17 10:31:16;;;;;;;25.45;8.60;;;;;;;;;;5128929;27;20039;-71
2023/12/17 10:33:48;;;;;;;26.00;8.73;;;;;;;;;;5125461;27;20086;-70
2023/12/17 10:36:14;;;;;;;35.83;11.07;;;;;;;;;;5125509;27;20034;-71
2023/12/17 10:38:40;;;;;;;48.88;19.48;;;;;;;;;;5144194;27;20509;-71
2023/12/17 10:41:07;;;;;;;27.25;11.90;;;;;;;;;;5122676;27;20720;-71
2023/12/17 10:43:34;;;;;;;32.85;11.75;;;;;;;;;;5122514;27;20042;-71
2023/12/17 10:46:00;;;;;;;41.63;12.88;;;;;;;;;;5123861;27;20122;-70
2023/12/17 10:48:27;;;;;;;29.15;12.70;;;;;;;;;;5122431;27;20509;-70
2023/12/17 10:50:53;;;;;;;28.10;10.43;;;;;;;;;;5121603;27;20035;-71
2023/12/17 10:53:19;;;;;;;36.28;11.10;;;;;;;;;;5124113;27;20039;-71
2023/12/17 10:55:46;;;;;;;23.88;9.73;;;;;;;;;;5121679;27;20050;-71
2023/12/17 10:58:15;;;;;;;31.10;10.02;;;;;;;;;;5122944;27;20137;-70
2023/12/17 11:00:42;;;;;;;29.90;9.73;;;;;;;;;;5141728;27;20057;-70
2023/12/17 11:03:10;;;;;;;22.48;9.98;;;;;;;;;;5123761;27;20077;-71
2023/12/17 11:05:36;;;;;;;31.20;11.05;;;;;;;;;;5127033;27;20057;-71
2023/12/17 11:08:05;;;;;;;27.08;9.75;;;;;;;;;;5139609;27;20047;-71
2023/12/17 11:10:37;;;;;;;33.58;12.07;;;;;;;;;;5122287;27;20196;-71
2023/12/17 11:13:03;;;;;;;28.85;10.63;;;;;;;;;;5124669;27;21388;-70
2023/12/17 11:15:29;;;;;;;25.42;10.10;;;;;;;;;;5126103;27;20400;-70
2023/12/17 11:17:55;;;;;;;26.27;9.93;;;;;;;;;;5128721;27;20043;-70
2023/12/17 11:20:22;;;;;;;30.77;10.40;;;;;;;;;;5142704;27;20545;-70
2023/12/17 11:22:50;;;;;;;29.13;10.35;;;;;;;;;;5141311;27;20405;-70
2023/12/17 11:25:16;;;;;;;30.83;11.10;;;;;;;;;;5144589;27;20106;-70
2023/12/17 11:27:42;;;;;;;27.40;9.77;;;;;;;;;;5124674;27;20045;-70
2023/12/17 11:30:27;;;;;;;27.63;11.55;;;;;;;;;;5132184;27;20053;-70
2023/12/17 11:32:53;;;;;;;33.25;12.52;;;;;;;;;;5130271;27;20119;-70
2023/12/17 11:35:20;;;;;;;25.35;10.93;;;;;;;;;;5122567;27;20062;-70
2023/12/17 11:37:47;;;;;;;22.17;10.65;;;;;;;;;;5129398;27;20073;-71
2023/12/17 11:40:15;;;;;;;23.35;9.45;;;;;;;;;;5129470;27;20346;-70
2023/12/17 11:42:41;;;;;;;27.35;11.70;;;;;;;;;;5122400;27;20095;-75
2023/12/17 11:45:07;;;;;;;30.80;13.10;;;;;;;;;;5121074;27;20054;-75
2023/12/17 11:47:33;;;;;;;24.05;11.63;;;;;;;;;;5123518;27;20054;-75
2023/12/17 11:50:00;;;;;;;28.73;13.50;;;;;;;;;;5119973;28;20179;-75
2023/12/17 11:52:26;;;;;;;25.77;10.63;;;;;;;;;;5117521;27;20553;-75
2023/12/17 11:55:03;;;;;;;24.17;13.25;;;;;;;;;;5127178;27;20042;-75
2023/12/17 11:57:30;;;;;;;34.03;14.48;;;;;;;;;;5122152;27;20077;-75
2023/12/17 12:00:10;;;;;;;25.95;13.20;;;;;;;;;;5128845;27;20058;-75
2023/12/17 12:02:36;;;;;;;29.35;13.27;;;;;;;;;;5123609;27;20063;-75
2023/12/17 12:05:02;;;;;;;24.50;12.73;;;;;;;;;;5130750;27;20356;-75
2023/12/17 12:07:28;;;;;;;28.98;13.45;;;;;;;;;;5120572;27;20038;-75
2023/12/17 12:10:05;;;;;;;27.45;13.73;;;;;;;;;;5123506;28;20158;-76
2023/12/17 12:12:52;;;;;;;31.85;13.00;;;;;;;;;;5144909;27;20115;-75
2023/12/17 12:15:17;;;;;;;25.05;11.05;;;;;;;;;;5126995;27;20138;-75
2023/12/17 12:17:43;;;;;;;31.33;13.73;;;;;;;;;;5120763;27;20074;-75
2023/12/17 12:20:10;;;;;;;34.50;14.35;;;;;;;;;;5122122;27;20135;-75
2023/12/17 12:22:38;;;;;;;24.00;11.77;;;;;;;;;;5123611;27;20039;-74
2023/12/17 12:25:04;;;;;;;24.95;11.40;;;;;;;;;;5147552;27;20046;-75
2023/12/17 12:27:31;;;;;;;26.60;12.40;;;;;;;;;;5123207;27;20086;-75
2023/12/17 12:29:57;;;;;;;28.17;13.65;;;;;;;;;;5138337;27;20047;-74
2023/12/17 12:32:30;;;;;;;37.00;13.82;;;;;;;;;;5128401;27;20401;-75
2023/12/17 12:34:59;;;;;;;28.85;12.30;;;;;;;;;;5132225;27;20035;-75
2023/12/17 12:37:35;;;;;;;32.22;15.10;;;;;;;;;;5128720;27;20514;-75
2023/12/17 12:40:02;;;;;;;24.98;13.07;;;;;;;;;;5128513;27;20383;-75
2023/12/17 12:42:29;;;;;;;33.05;14.55;;;;;;;;;;5131166;27;20118;-75
2023/12/17 12:44:55;;;;;;;29.45;12.80;;;;;;;;;;5126258;27;20051;-75
2023/12/17 12:47:22;;;;;;;24.63;11.30;;;;;;;;;;5123380;27;20043;-75
2023/12/17 12:49:49;;;;;;;26.88;12.30;;;;;;;;;;5129852;27;20517;-76
2023/12/17 12:52:15;;;;;;;22.30;11.60;;;;;;;;;;5127887;27;20055;-75
2023/12/17 12:54:42;;;;;;;27.80;12.48;;;;;;;;;;5146740;27;20039;-76
2023/12/17 12:57:08;;;;;;;20.48;10.18;;;;;;;;;;5122559;27;20051;-75
2023/12/17 12:59:34;;;;;;;19.98;11.65;;;;;;;;;;5120295;27;20839;-71
2023/12/17 13:02:03;;;;;;;24.60;12.70;;;;;;;;;;5129725;27;20038;-71
2023/12/17 13:04:29;;;;;;;23.80;13.23;;;;;;;;;;5127836;27;20059;-71
2023/12/17 13:06:56;;;;;;;23.35;11.27;;;;;;;;;;5120927;27;20058;-71
2023/12/17 13:09:22;;;;;;;22.45;10.55;;;;;;;;;;5126998;27;20050;-70
2023/12/17 13:11:49;;;;;;;18.67;11.07;;;;;;;;;;5131748;27;20163;-71
2023/12/17 13:14:17;;;;;;;25.48;11.38;;;;;;;;;;5128818;27;20096;-71
2023/12/17 13:16:43;;;;;;;19.75;10.35;;;;;;;;;;5130396;27;20054;-71
2023/12/17 13:19:09;;;;;;;22.15;9.80;;;;;;;;;;5119789;27;20457;-71
2023/12/17 13:21:35;;;;;;;22.92;10.98;;;;;;;;;;5118460;27;20131;-71
2023/12/17 13:24:10;;;;;;;20.95;10.20;;;;;;;;;;5128212;27;20049;-72
2023/12/17 13:26:39;;;;;;;23.23;11.65;;;;;;;;;;5125052;27;20382;-71
2023/12/17 13:29:05;;;;;;;21.90;12.30;;;;;;;;;;5122811;27;20154;-70
2023/12/17 13:31:35;;;;;;;23.58;11.63;;;;;;;;;;5135553;27;20359;-71
2023/12/17 13:34:01;;;;;;;28.75;12.02;;;;;;;;;;5118823;27;20101;-71
2023/12/17 13:36:27;;;;;;;22.88;11.85;;;;;;;;;;5116331;27;20102;-70
2023/12/17 13:38:53;;;;;;;30.98;13.88;;;;;;;;;;5112085;27;20957;-71
2023/12/17 13:41:19;;;;;;;25.25;13.25;;;;;;;;;;5115753;27;20039;-70
2023/12/17 13:43:45;;;;;;;24.05;12.93;;;;;;;;;;5114991;27;21979;-71
2023/12/17 13:46:11;;;;;;;26.90;11.43;;;;;;;;;;5119912;27;20551;-71
2023/12/17 13:48:38;;;;;;;23.60;9.98;;;;;;;;;;5120776;27;20047;-71
2023/12/17 13:51:04;;;;;;;26.15;12.90;;;;;;;;;;5117814;27;20050;-71
2023/12/17 13:53:30;;;;;;;28.85;13.48;;;;;;;;;;5116758;27;20507;-71
2023/12/17 13:55:56;;;;;;;19.42;11.30;;;;;;;;;;5138806;27;20043;-71
2023/12/17 13:58:22;;;;;;;24.20;12.70;;;;;;;;;;5149397;27;20043;-71
2023/12/17 14:00:48;;;;;;;25.83;13.07;;;;;;;;;;5138193;27;20103;-71
2023/12/17 14:03:14;;;;;;;22.00;12.45;;;;;;;;;;5141837;27;20102;-71
2023/12/17 14:05:40;;;;;;;23.45;11.50;;;;;;;;;;5121999;27;20138;-71
2023/12/17 14:08:06;;;;;;;24.38;10.65;;;;;;;;;;5122107;27;20130;-71
2023/12/17 14:10:32;;;;;;;22.17;10.13;;;;;;;;;;5129345;27;20034;-71
2023/12/17 14:13:00;;;;;;;23.15;9.02;;;;;;;;;;5115293;27;20075;-71
2023/12/17 14:15:26;;;;;;;21.10;10.65;;;;;;;;;;5122666;27;20066;-71
2023/12/17 14:17:53;;;;;;;22.02;10.15;;;;;;;;;;5130116;27;20039;-71
2023/12/17 14:20:19;;;;;;;19.08;10.38;;;;;;;;;;5132130;27;20501;-71
2023/12/17 14:22:45;;;;;;;21.95;11.18;;;;;;;;;;5132973;27;20106;-71